Time;durP1;ratioP1;P1;durP2;ratioP2;P2;SDS_P1;SDS_P2;PMS_P1;PMS_P2;Temp;Humidity;BMP_temperature;BMP_pressure;BME280_temperature;BME280_humidity;BME280_pressure;Samples;Min_cycle;Max_cycle;Signal;HPM_P1;HPM_P2
2022/05/22 00:01:15;;;;;;;4.43;2.23;;;;;;;;;;4991661;28;20187;-74
2022/05/22 00:03:41;;;;;;;2.87;2.13;;;;;;;;;;4992013;28;20211;-75
2022/05/22 00:06:07;;;;;;;2.50;2.10;;;;;;;;;;4993683;28;20279;-74
2022/05/22 00:08:33;;;;;;;3.87;2.30;;;;;;;;;;4995396;28;20190;-74
2022/05/22 00:10:59;;;;;;;5.03;2.40;;;;;;;;;;4995299;28;20337;-75
2022/05/22 00:13:25;;;;;;;3.27;2.17;;;;;;;;;;4994939;28;20202;-74
2022/05/22 00:18:36;;;;;;;3.80;2.10;;;;;;;;;;4995715;28;20245;-74
2022/05/22 00:21:02;;;;;;;2.90;2.50;;;;;;;;;;4979013;28;20188;-74
2022/05/22 00:23:31;;;;;;;3.13;2.13;;;;;;;;;;4994707;28;20219;-74
2022/05/22 00:25:58;;;;;;;3.67;2.40;;;;;;;;;;4979448;28;20195;-74
2022/05/22 00:28:24;;;;;;;2.87;2.30;;;;;;;;;;4995151;28;20188;-74
2022/05/22 00:30:50;;;;;;;3.20;2.27;;;;;;;;;;4979261;28;20182;-74
2022/05/22 00:33:16;;;;;;;2.70;2.40;;;;;;;;;;4994682;28;20215;-74
2022/05/22 00:35:42;;;;;;;2.60;2.40;;;;;;;;;;4994874;28;20237;-74
2022/05/22 00:38:08;;;;;;;2.77;2.57;;;;;;;;;;4994628;28;20183;-74
2022/05/22 00:40:35;;;;;;;3.10;2.60;;;;;;;;;;4995032;28;20176;-74
2022/05/22 00:43:01;;;;;;;2.77;2.20;;;;;;;;;;4995612;28;20205;-74
2022/05/22 00:45:28;;;;;;;3.63;2.47;;;;;;;;;;4994650;28;20180;-74
2022/05/22 00:47:54;;;;;;;4.07;2.60;;;;;;;;;;4994684;28;20184;-74
2022/05/22 00:50:21;;;;;;;2.70;2.30;;;;;;;;;;4978623;28;20183;-75
2022/05/22 00:52:50;;;;;;;3.17;2.40;;;;;;;;;;4994142;28;20580;-74
2022/05/22 00:55:22;;;;;;;3.10;2.30;;;;;;;;;;4978523;28;20183;-74
2022/05/22 00:57:50;;;;;;;3.23;2.20;;;;;;;;;;4994662;28;20186;-74
2022/05/22 01:00:18;;;;;;;4.27;2.50;;;;;;;;;;4994529;28;20229;-74
2022/05/22 01:05:29;;;;;;;3.17;2.50;;;;;;;;;;4994556;28;20197;-74
2022/05/22 01:07:57;;;;;;;3.57;2.40;;;;;;;;;;4994254;28;20177;-74
2022/05/22 01:10:24;;;;;;;2.87;2.40;;;;;;;;;;4994349;28;20272;-74
2022/05/22 01:12:50;;;;;;;5.83;2.60;;;;;;;;;;4994081;28;20205;-74
2022/05/22 01:15:16;;;;;;;4.33;2.60;;;;;;;;;;4994107;28;20550;-74
2022/05/22 01:17:43;;;;;;;2.70;2.37;;;;;;;;;;4993391;28;20189;-74
2022/05/22 01:20:10;;;;;;;2.90;2.60;;;;;;;;;;4978206;28;20187;-74
2022/05/22 01:22:36;;;;;;;4.27;2.60;;;;;;;;;;4993746;28;20214;-74
2022/05/22 01:25:02;;;;;;;2.53;2.30;;;;;;;;;;4977936;28;20186;-74
2022/05/22 01:27:28;;;;;;;3.60;2.60;;;;;;;;;;4993898;28;20234;-74
2022/05/22 01:30:05;;;;;;;6.13;2.70;;;;;;;;;;4993919;28;20167;-74
2022/05/22 01:32:34;;;;;;;3.80;2.70;;;;;;;;;;4993200;28;20179;-74
2022/05/22 01:35:01;;;;;;;3.10;2.70;;;;;;;;;;4994023;28;20638;-74
2022/05/22 01:37:26;;;;;;;5.57;2.50;;;;;;;;;;4993835;28;20637;-74
2022/05/22 01:39:52;;;;;;;2.83;2.40;;;;;;;;;;4993804;28;20211;-74
2022/05/22 01:42:19;;;;;;;2.97;2.63;;;;;;;;;;4977237;28;20179;-74
2022/05/22 01:44:45;;;;;;;4.10;2.70;;;;;;;;;;4993475;28;20655;-74
2022/05/22 01:47:14;;;;;;;3.37;2.37;;;;;;;;;;4993848;28;20187;-74
2022/05/22 01:49:40;;;;;;;2.80;2.60;;;;;;;;;;4993601;28;20187;-75
2022/05/22 01:52:06;;;;;;;5.53;2.70;;;;;;;;;;4977158;28;20180;-75
2022/05/22 01:54:32;;;;;;;3.97;2.63;;;;;;;;;;4993357;28;20208;-75
2022/05/22 01:56:58;;;;;;;2.80;2.60;;;;;;;;;;4977394;28;20562;-74
2022/05/22 01:59:24;;;;;;;3.90;2.57;;;;;;;;;;4993372;28;20183;-74
2022/05/22 02:01:50;;;;;;;3.27;2.47;;;;;;;;;;4976998;28;20192;-74
2022/05/22 02:04:16;;;;;;;3.70;2.50;;;;;;;;;;4976822;28;20226;-74
2022/05/22 02:09:26;;;;;;;3.93;2.63;;;;;;;;;;4993620;28;20238;-74
2022/05/22 02:11:52;;;;;;;3.63;2.80;;;;;;;;;;4993025;28;20233;-74
2022/05/22 02:14:19;;;;;;;4.07;2.80;;;;;;;;;;4993198;28;20237;-74
2022/05/22 02:16:45;;;;;;;5.60;2.80;;;;;;;;;;4977227;28;20210;-74
2022/05/22 02:19:11;;;;;;;4.40;2.67;;;;;;;;;;4993120;28;20182;-74
2022/05/22 02:21:38;;;;;;;3.17;2.53;;;;;;;;;;4992931;28;20245;-74
2022/05/22 02:24:04;;;;;;;5.37;2.60;;;;;;;;;;4992702;28;20242;-74
2022/05/22 02:26:30;;;;;;;3.37;2.70;;;;;;;;;;4976637;28;20179;-74
2022/05/22 02:28:56;;;;;;;2.90;2.60;;;;;;;;;;4975684;28;20202;-74
2022/05/22 02:31:22;;;;;;;4.23;2.70;;;;;;;;;;4992749;28;20182;-74
2022/05/22 02:33:48;;;;;;;4.83;2.73;;;;;;;;;;4976266;28;20223;-74
2022/05/22 02:36:14;;;;;;;3.10;2.70;;;;;;;;;;4992688;28;20214;-74
2022/05/22 02:38:41;;;;;;;4.33;3.07;;;;;;;;;;4976464;28;20204;-74
2022/05/22 02:41:11;;;;;;;2.70;2.47;;;;;;;;;;4993705;28;20176;-77
2022/05/22 02:43:37;;;;;;;3.63;2.70;;;;;;;;;;4976225;28;20216;-77
2022/05/22 02:46:07;;;;;;;3.33;2.67;;;;;;;;;;4992439;28;20309;-77
2022/05/22 02:48:33;;;;;;;3.73;2.70;;;;;;;;;;4992545;28;20187;-77
2022/05/22 02:50:59;;;;;;;3.87;2.60;;;;;;;;;;4993563;28;20174;-77
2022/05/22 02:53:25;;;;;;;3.63;2.60;;;;;;;;;;4975952;28;20207;-77
2022/05/22 02:55:52;;;;;;;4.83;2.40;;;;;;;;;;4976062;28;20658;-77
2022/05/22 02:58:18;;;;;;;3.00;2.50;;;;;;;;;;4992431;28;20184;-77
2022/05/22 03:00:44;;;;;;;2.70;2.50;;;;;;;;;;4992447;28;20194;-77
2022/05/22 03:03:10;;;;;;;3.80;2.90;;;;;;;;;;4975714;28;20203;-77
2022/05/22 03:08:20;;;;;;;3.20;2.60;;;;;;;;;;4992713;28;20265;-77
2022/05/22 03:10:46;;;;;;;3.50;3.13;;;;;;;;;;4992037;28;20230;-77
2022/05/22 03:13:14;;;;;;;3.20;2.90;;;;;;;;;;4991899;28;20257;-77
2022/05/22 03:15:40;;;;;;;4.00;2.90;;;;;;;;;;4975839;28;20194;-77
2022/05/22 03:18:06;;;;;;;3.13;2.83;;;;;;;;;;4993245;28;20184;-77
2022/05/22 03:20:33;;;;;;;3.77;3.20;;;;;;;;;;4991803;28;20184;-77
2022/05/22 03:22:59;;;;;;;4.00;2.73;;;;;;;;;;4991521;28;20204;-77
2022/05/22 03:25:26;;;;;;;3.00;2.43;;;;;;;;;;4992113;28;20183;-77
2022/05/22 03:27:52;;;;;;;4.07;2.90;;;;;;;;;;4993172;28;20623;-77
2022/05/22 03:30:18;;;;;;;4.50;2.70;;;;;;;;;;4991595;28;20180;-77
2022/05/22 03:32:44;;;;;;;3.30;3.00;;;;;;;;;;4975327;28;20258;-77
2022/05/22 03:35:10;;;;;;;3.40;2.80;;;;;;;;;;4975425;28;20195;-77
2022/05/22 03:37:37;;;;;;;3.37;3.07;;;;;;;;;;4992990;28;20176;-77
2022/05/22 03:40:03;;;;;;;3.57;3.20;;;;;;;;;;4991319;28;20673;-77
2022/05/22 03:42:29;;;;;;;3.00;2.70;;;;;;;;;;4991258;28;20266;-77
2022/05/22 03:44:55;;;;;;;4.07;2.90;;;;;;;;;;4975747;28;20283;-77
2022/05/22 03:47:21;;;;;;;5.43;3.23;;;;;;;;;;4975373;28;20602;-77
2022/05/22 03:49:47;;;;;;;3.57;3.13;;;;;;;;;;4975315;28;20355;-77
2022/05/22 03:52:13;;;;;;;4.23;3.07;;;;;;;;;;4991614;28;20242;-77
2022/05/22 03:54:39;;;;;;;4.90;3.17;;;;;;;;;;4975354;28;20214;-77
2022/05/22 03:57:05;;;;;;;4.80;2.87;;;;;;;;;;4975541;28;20179;-76
2022/05/22 03:59:32;;;;;;;3.20;2.90;;;;;;;;;;4991359;28;20184;-76
2022/05/22 04:01:58;;;;;;;3.90;3.20;;;;;;;;;;4991315;28;20184;-76
2022/05/22 04:04:24;;;;;;;3.20;2.90;;;;;;;;;;4990924;28;20225;-76
2022/05/22 04:06:50;;;;;;;3.43;3.13;;;;;;;;;;4991713;28;20177;-76
2022/05/22 04:09:16;;;;;;;6.97;3.50;;;;;;;;;;4975521;28;20181;-77
2022/05/22 04:11:42;;;;;;;3.87;3.10;;;;;;;;;;4975045;28;20713;-77
2022/05/22 04:14:08;;;;;;;3.47;3.00;;;;;;;;;;4991249;28;20203;-77
2022/05/22 04:16:34;;;;;;;3.97;2.70;;;;;;;;;;4991272;28;20189;-77
2022/05/22 04:19:00;;;;;;;4.17;3.30;;;;;;;;;;4975256;28;20180;-77
2022/05/22 04:21:26;;;;;;;3.33;3.03;;;;;;;;;;4975205;28;20654;-77
2022/05/22 04:26:37;;;;;;;4.00;3.03;;;;;;;;;;4992624;28;20259;-77
2022/05/22 04:29:03;;;;;;;6.57;3.40;;;;;;;;;;4991192;28;20266;-77
2022/05/22 04:31:29;;;;;;;5.87;3.20;;;;;;;;;;4991064;28;20185;-77
2022/05/22 04:33:55;;;;;;;3.10;2.73;;;;;;;;;;4992231;28;20215;-77
2022/05/22 04:36:21;;;;;;;4.67;3.50;;;;;;;;;;4992337;28;20182;-77
2022/05/22 04:38:47;;;;;;;5.40;3.40;;;;;;;;;;4975111;28;20180;-77
2022/05/22 04:41:13;;;;;;;5.50;3.23;;;;;;;;;;4975013;28;20188;-77
2022/05/22 04:43:39;;;;;;;4.20;3.10;;;;;;;;;;4974787;28;20213;-77
2022/05/22 04:46:08;;;;;;;4.83;3.27;;;;;;;;;;4991075;28;20176;-76
2022/05/22 04:48:33;;;;;;;4.10;3.00;;;;;;;;;;4975154;28;20191;-76
2022/05/22 04:51:00;;;;;;;3.97;3.47;;;;;;;;;;4974988;28;20213;-76
2022/05/22 04:53:28;;;;;;;3.53;3.20;;;;;;;;;;4977059;28;20204;-77
2022/05/22 04:55:54;;;;;;;3.87;3.47;;;;;;;;;;4994458;28;20189;-76
2022/05/22 04:58:20;;;;;;;3.70;3.40;;;;;;;;;;4978248;28;20226;-76
2022/05/22 05:00:46;;;;;;;4.30;3.47;;;;;;;;;;4995571;28;20209;-77
2022/05/22 05:03:13;;;;;;;3.97;3.33;;;;;;;;;;4978222;28;20219;-76
2022/05/22 05:05:39;;;;;;;3.40;3.10;;;;;;;;;;4994371;28;20177;-77
2022/05/22 05:08:05;;;;;;;3.47;3.13;;;;;;;;;;4994373;28;20180;-77
2022/05/22 05:10:31;;;;;;;4.03;3.40;;;;;;;;;;4994204;28;20186;-77
2022/05/22 05:12:57;;;;;;;4.83;3.20;;;;;;;;;;4994067;28;20219;-77
2022/05/22 05:15:24;;;;;;;5.07;3.70;;;;;;;;;;4994100;28;20207;-77
2022/05/22 05:17:50;;;;;;;5.70;3.73;;;;;;;;;;4994235;28;20185;-77
2022/05/22 05:20:23;;;;;;;4.73;3.90;;;;;;;;;;4993984;28;20188;-77
2022/05/22 05:22:50;;;;;;;4.23;3.37;;;;;;;;;;4994945;28;20196;-77
2022/05/22 05:25:16;;;;;;;3.57;3.27;;;;;;;;;;4994005;28;20187;-77
2022/05/22 05:27:42;;;;;;;5.13;3.33;;;;;;;;;;4995044;28;20183;-77
2022/05/22 05:30:09;;;;;;;4.63;3.50;;;;;;;;;;4993795;28;20188;-77
2022/05/22 05:32:35;;;;;;;4.53;3.70;;;;;;;;;;4993460;28;20277;-77
2022/05/22 05:35:02;;;;;;;3.93;3.50;;;;;;;;;;4994180;28;20262;-77
2022/05/22 05:37:28;;;;;;;3.80;3.43;;;;;;;;;;4993785;28;20178;-77
2022/05/22 05:39:54;;;;;;;4.00;3.30;;;;;;;;;;4993765;28;20183;-77
2022/05/22 05:42:21;;;;;;;4.10;3.20;;;;;;;;;;4993336;28;20177;-77
2022/05/22 05:44:48;;;;;;;4.03;3.40;;;;;;;;;;4994777;28;20210;-77
2022/05/22 05:47:14;;;;;;;4.67;3.60;;;;;;;;;;4977470;28;20604;-77
2022/05/22 05:49:40;;;;;;;4.27;3.83;;;;;;;;;;4993449;28;20194;-77
2022/05/22 05:52:07;;;;;;;5.03;3.80;;;;;;;;;;4977252;28;20222;-77
2022/05/22 05:54:33;;;;;;;5.17;3.77;;;;;;;;;;4994540;28;20674;-77
2022/05/22 05:57:00;;;;;;;4.07;3.63;;;;;;;;;;4993326;28;20556;-77
2022/05/22 05:59:26;;;;;;;4.93;3.90;;;;;;;;;;4993343;28;20199;-77
2022/05/22 06:01:52;;;;;;;4.40;3.50;;;;;;;;;;4977208;28;20216;-77
2022/05/22 06:04:18;;;;;;;5.37;3.90;;;;;;;;;;4992834;28;20725;-77
2022/05/22 06:06:45;;;;;;;5.77;3.77;;;;;;;;;;4993233;28;20186;-77
2022/05/22 06:09:11;;;;;;;4.90;4.03;;;;;;;;;;4993138;28;20203;-77
2022/05/22 06:11:37;;;;;;;4.30;3.90;;;;;;;;;;4976830;28;20220;-77
2022/05/22 06:14:03;;;;;;;5.03;4.00;;;;;;;;;;4976570;28;20207;-77
2022/05/22 06:16:29;;;;;;;5.37;4.03;;;;;;;;;;4992976;28;20254;-77
2022/05/22 06:18:55;;;;;;;5.63;4.47;;;;;;;;;;4993079;28;20554;-77
2022/05/22 06:21:22;;;;;;;8.07;4.10;;;;;;;;;;4992976;28;20179;-77
2022/05/22 06:23:48;;;;;;;4.97;4.13;;;;;;;;;;4992815;28;20227;-77
2022/05/22 06:26:17;;;;;;;5.40;4.40;;;;;;;;;;4992770;28;20175;-77
2022/05/22 06:28:43;;;;;;;4.33;3.90;;;;;;;;;;4976700;28;20266;-77
2022/05/22 06:31:11;;;;;;;5.47;4.30;;;;;;;;;;4992685;28;20267;-77
2022/05/22 06:33:37;;;;;;;7.97;4.30;;;;;;;;;;4992403;28;20306;-77
2022/05/22 06:36:08;;;;;;;6.53;4.60;;;;;;;;;;4976662;28;20230;-77
2022/05/22 06:41:18;;;;;;;5.37;4.47;;;;;;;;;;4994079;28;20562;-77
2022/05/22 06:43:46;;;;;;;6.93;4.27;;;;;;;;;;4976165;28;20689;-77
2022/05/22 06:46:12;;;;;;;6.53;4.40;;;;;;;;;;4992315;28;20226;-77
2022/05/22 06:48:38;;;;;;;5.27;4.63;;;;;;;;;;4992471;28;20639;-77
2022/05/22 06:51:04;;;;;;;6.43;4.70;;;;;;;;;;4976197;28;20176;-77
2022/05/22 06:53:30;;;;;;;5.97;4.50;;;;;;;;;;4992363;28;20210;-77
2022/05/22 06:55:56;;;;;;;5.30;4.33;;;;;;;;;;4992658;28;20175;-77
2022/05/22 06:58:22;;;;;;;4.93;4.43;;;;;;;;;;4992382;28;20547;-77
2022/05/22 07:00:55;;;;;;;6.50;4.60;;;;;;;;;;4976108;28;20191;-77
2022/05/22 07:03:21;;;;;;;5.67;4.67;;;;;;;;;;4993065;28;20200;-77
2022/05/22 07:05:47;;;;;;;5.73;4.07;;;;;;;;;;4992178;28;20211;-77
2022/05/22 07:08:13;;;;;;;5.33;4.50;;;;;;;;;;4976057;28;20206;-77
2022/05/22 07:13:24;;;;;;;5.43;4.27;;;;;;;;;;4992285;28;20295;-77
2022/05/22 07:16:16;;;;;;;7.70;5.20;;;;;;;;;;4991501;28;20175;-77
2022/05/22 07:18:42;;;;;;;4.60;4.20;;;;;;;;;;4990017;28;20195;-77
2022/05/22 07:21:08;;;;;;;6.63;4.90;;;;;;;;;;4975873;28;20242;-77
2022/05/22 07:23:34;;;;;;;5.33;4.50;;;;;;;;;;4991608;28;20210;-77
2022/05/22 07:26:00;;;;;;;5.93;4.70;;;;;;;;;;4993082;28;20175;-77
2022/05/22 07:28:26;;;;;;;7.80;5.03;;;;;;;;;;4975625;28;20228;-77
2022/05/22 07:30:52;;;;;;;7.00;4.47;;;;;;;;;;4992138;28;20176;-77
2022/05/22 07:33:18;;;;;;;6.20;4.37;;;;;;;;;;4975419;28;20270;-77
2022/05/22 07:35:58;;;;;;;6.57;4.50;;;;;;;;;;4991748;28;20179;-77
2022/05/22 07:38:24;;;;;;;7.37;5.03;;;;;;;;;;4991681;28;20544;-77
2022/05/22 07:40:51;;;;;;;5.57;4.70;;;;;;;;;;4975553;28;20179;-77
2022/05/22 07:43:17;;;;;;;8.67;5.73;;;;;;;;;;4991419;28;20674;-77
2022/05/22 07:45:44;;;;;;;5.50;4.67;;;;;;;;;;4975413;28;20254;-77
2022/05/22 07:48:10;;;;;;;10.47;5.27;;;;;;;;;;5015268;22;20271;-74
2022/05/22 07:50:36;;;;;;;8.20;4.90;;;;;;;;;;4991682;28;20187;-74
2022/05/22 07:53:02;;;;;;;5.37;4.47;;;;;;;;;;4975460;28;20183;-74
2022/05/22 07:55:28;;;;;;;6.70;4.47;;;;;;;;;;4992164;28;20226;-74
2022/05/22 07:57:54;;;;;;;7.60;4.47;;;;;;;;;;4975295;28;20345;-74
2022/05/22 08:00:21;;;;;;;5.33;3.93;;;;;;;;;;4975391;28;20219;-74
2022/05/22 08:02:48;;;;;;;7.50;4.70;;;;;;;;;;4991292;28;20216;-74
2022/05/22 08:05:17;;;;;;;6.20;3.90;;;;;;;;;;4991414;28;20266;-74
2022/05/22 08:07:43;;;;;;;7.53;4.30;;;;;;;;;;4975400;28;20203;-74
2022/05/22 08:10:10;;;;;;;6.30;3.97;;;;;;;;;;4991375;28;20218;-74
2022/05/22 08:12:37;;;;;;;6.87;4.67;;;;;;;;;;4992649;28;20200;-74
2022/05/22 08:15:03;;;;;;;6.77;4.40;;;;;;;;;;4992644;28;20199;-74
2022/05/22 08:17:35;;;;;;;7.07;4.23;;;;;;;;;;4991718;28;20303;-74
2022/05/22 08:20:02;;;;;;;6.40;4.20;;;;;;;;;;4976141;28;20183;-74
2022/05/22 08:22:28;;;;;;;7.07;3.60;;;;;;;;;;4991067;28;20276;-74
2022/05/22 08:24:54;;;;;;;7.73;3.90;;;;;;;;;;4992368;28;20203;-74
2022/05/22 08:27:20;;;;;;;6.03;3.90;;;;;;;;;;4976043;28;20531;-74
2022/05/22 08:29:46;;;;;;;4.83;3.47;;;;;;;;;;4979022;28;20266;-74
2022/05/22 08:32:12;;;;;;;5.67;3.40;;;;;;;;;;4978745;28;20712;-74
2022/05/22 08:34:38;;;;;;;5.40;3.47;;;;;;;;;;4978814;28;20649;-76
2022/05/22 08:37:04;;;;;;;5.63;3.73;;;;;;;;;;4996141;28;20183;-76
2022/05/22 08:39:31;;;;;;;8.17;4.40;;;;;;;;;;4978546;28;20244;-76
2022/05/22 08:41:58;;;;;;;6.77;3.80;;;;;;;;;;4994563;28;20183;-77
2022/05/22 08:44:34;;;;;;;7.60;3.83;;;;;;;;;;4978725;28;20211;-77
2022/05/22 08:47:18;;;;;;;5.00;3.00;;;;;;;;;;4994902;28;20673;-77
2022/05/22 08:49:48;;;;;;;5.87;3.27;;;;;;;;;;4994625;28;20680;-76
2022/05/22 08:52:21;;;;;;;4.10;2.70;;;;;;;;;;4994614;28;20325;-76
2022/05/22 08:54:49;;;;;;;5.23;3.00;;;;;;;;;;4994714;28;20214;-76
2022/05/22 09:00:00;;;;;;;6.60;3.23;;;;;;;;;;4995809;28;20211;-76
2022/05/22 09:02:32;;;;;;;7.50;3.10;;;;;;;;;;4995384;28;20188;-77
2022/05/22 09:04:58;;;;;;;7.97;3.33;;;;;;;;;;4995435;28;20180;-76
2022/05/22 09:07:43;;;;;;;6.13;3.53;;;;;;;;;;4995798;28;20179;-76
2022/05/22 09:10:30;;;;;;;5.03;3.60;;;;;;;;;;4994420;28;20188;-77
2022/05/22 09:13:03;;;;;;;4.80;4.07;;;;;;;;;;4973702;28;20561;-76
2022/05/22 09:15:34;;;;;;;6.03;4.10;;;;;;;;;;4994412;28;20203;-76
2022/05/22 09:18:01;;;;;;;5.83;3.60;;;;;;;;;;4994113;28;20207;-77
2022/05/22 09:20:27;;;;;;;3.90;3.50;;;;;;;;;;4994179;28;20187;-77
2022/05/22 09:22:53;;;;;;;5.53;3.73;;;;;;;;;;4995055;28;20226;-77
2022/05/22 09:25:28;;;;;;;5.63;3.90;;;;;;;;;;4993866;28;20190;-77
2022/05/22 09:27:54;;;;;;;6.83;4.03;;;;;;;;;;4993775;28;20199;-77
2022/05/22 09:30:25;;;;;;;5.43;3.93;;;;;;;;;;4995136;28;20601;-77
2022/05/22 09:32:51;;;;;;;4.70;3.80;;;;;;;;;;4993753;28;20179;-77
2022/05/22 09:35:21;;;;;;;6.20;4.27;;;;;;;;;;4993847;28;20182;-77
2022/05/22 09:37:47;;;;;;;6.30;4.27;;;;;;;;;;4993253;28;20286;-76
2022/05/22 09:40:31;;;;;;;7.67;4.03;;;;;;;;;;4993656;28;20266;-77
2022/05/22 09:42:57;;;;;;;5.67;4.00;;;;;;;;;;4993445;28;20335;-77
2022/05/22 09:45:23;;;;;;;7.77;4.17;;;;;;;;;;4993746;28;20200;-77
2022/05/22 09:48:05;;;;;;;5.30;3.90;;;;;;;;;;4993381;28;20665;-77
2022/05/22 09:50:46;;;;;;;5.72;3.30;;;;;;;;;;4993706;28;20176;-76
2022/05/22 09:53:21;;;;;;;6.65;3.65;;;;;;;;;;4993214;28;20175;-74
2022/05/22 09:55:52;;;;;;;6.45;3.67;;;;;;;;;;4993528;28;20187;-74
2022/05/22 09:58:36;;;;;;;6.45;3.80;;;;;;;;;;4993355;28;20286;-74
2022/05/22 10:01:10;;;;;;;4.63;3.33;;;;;;;;;;4993413;28;20191;-74
2022/05/22 10:03:54;;;;;;;5.50;3.67;;;;;;;;;;4994250;28;20196;-73
2022/05/22 10:06:29;;;;;;;6.50;3.22;;;;;;;;;;4993416;28;20183;-74
2022/05/22 10:09:16;;;;;;;5.68;3.50;;;;;;;;;;4993297;28;20199;-74
2022/05/22 10:11:42;;;;;;;5.22;3.38;;;;;;;;;;4993349;28;20195;-74
2022/05/22 10:14:26;;;;;;;6.45;3.83;;;;;;;;;;4993042;28;20179;-74
2022/05/22 10:17:06;;;;;;;4.47;3.60;;;;;;;;;;4993111;28;20180;-74
2022/05/22 10:19:32;;;;;;;7.22;3.83;;;;;;;;;;4994192;28;20198;-74
2022/05/22 10:22:01;;;;;;;6.55;3.70;;;;;;;;;;4992914;28;20180;-74
2022/05/22 10:24:27;;;;;;;7.32;3.85;;;;;;;;;;4992990;28;20721;-74
2022/05/22 10:27:02;;;;;;;6.15;4.00;;;;;;;;;;4992917;28;20203;-74
2022/05/22 10:29:51;;;;;;;5.10;3.45;;;;;;;;;;4992803;28;20191;-74
2022/05/22 10:32:38;;;;;;;4.53;3.60;;;;;;;;;;4987372;28;20184;-74
2022/05/22 10:35:08;;;;;;;6.28;3.60;;;;;;;;;;4992687;28;20646;-74
2022/05/22 10:37:45;;;;;;;6.22;3.13;;;;;;;;;;4992671;28;20254;-74
2022/05/22 10:40:16;;;;;;;4.60;2.88;;;;;;;;;;4976743;28;20298;-74
2022/05/22 10:42:45;;;;;;;4.85;2.63;;;;;;;;;;4993606;28;20168;-74
2022/05/22 10:45:21;;;;;;;4.18;3.00;;;;;;;;;;4993762;28;20552;-74
2022/05/22 10:47:49;;;;;;;4.95;3.08;;;;;;;;;;4992417;28;20305;-74
2022/05/22 10:50:26;;;;;;;4.55;2.80;;;;;;;;;;4991530;28;20172;-75
2022/05/22 10:52:52;;;;;;;5.55;3.28;;;;;;;;;;4992061;28;20669;-74
2022/05/22 10:55:21;;;;;;;6.50;2.90;;;;;;;;;;4992218;28;20198;-74
2022/05/22 10:57:58;;;;;;;5.30;2.70;;;;;;;;;;4992148;28;20195;-74
2022/05/22 11:00:25;;;;;;;4.75;2.70;;;;;;;;;;4992428;28;20164;-75
2022/05/22 11:02:51;;;;;;;5.78;2.80;;;;;;;;;;4976239;28;20176;-78
2022/05/22 11:05:20;;;;;;;5.90;2.85;;;;;;;;;;4987499;28;20179;-74
2022/05/22 11:08:16;;;;;;;3.90;2.60;;;;;;;;;;4988536;28;20184;-74
2022/05/22 11:10:42;;;;;;;2.72;2.40;;;;;;;;;;4992946;28;20175;-74
2022/05/22 11:13:12;;;;;;;5.53;2.70;;;;;;;;;;4975982;28;20187;-74
2022/05/22 11:15:39;;;;;;;5.38;2.40;;;;;;;;;;4992617;28;20187;-74
2022/05/22 11:18:10;;;;;;;4.47;2.58;;;;;;;;;;4992245;28;20246;-74
2022/05/22 11:20:41;;;;;;;4.28;2.30;;;;;;;;;;4993188;28;20160;-74
2022/05/22 11:23:07;;;;;;;3.53;2.25;;;;;;;;;;4992969;28;20231;-74
2022/05/22 11:25:45;;;;;;;3.95;2.15;;;;;;;;;;4992051;28;20206;-74
2022/05/22 11:28:29;;;;;;;4.03;1.90;;;;;;;;;;4991697;28;20195;-74
2022/05/22 11:31:28;;;;;;;2.58;2.00;;;;;;;;;;4991964;28;20654;-74
2022/05/22 11:34:06;;;;;;;2.33;1.77;;;;;;;;;;4980939;28;20306;-74
2022/05/22 11:36:52;;;;;;;4.10;2.13;;;;;;;;;;4992957;28;20168;-74
2022/05/22 11:39:22;;;;;;;4.40;2.00;;;;;;;;;;4992424;28;20231;-74
2022/05/22 11:42:02;;;;;;;3.75;2.00;;;;;;;;;;4991644;28;20230;-74
2022/05/22 11:45:03;;;;;;;3.15;2.00;;;;;;;;;;4991669;28;20211;-74
2022/05/22 11:47:38;;;;;;;4.57;2.30;;;;;;;;;;4954784;28;20210;-74
2022/05/22 11:50:07;;;;;;;4.20;2.10;;;;;;;;;;4985938;28;20284;-74
2022/05/22 11:52:56;;;;;;;4.28;2.15;;;;;;;;;;4991355;28;20194;-74
2022/05/22 11:55:29;;;;;;;4.45;2.25;;;;;;;;;;4992792;28;20225;-74
2022/05/22 11:58:14;;;;;;;2.67;2.05;;;;;;;;;;4991540;28;20192;-74
2022/05/22 12:00:42;;;;;;;4.50;2.10;;;;;;;;;;4991650;28;20171;-74
2022/05/22 12:03:21;;;;;;;3.72;2.03;;;;;;;;;;4995015;28;20203;-74
2022/05/22 12:05:53;;;;;;;3.63;1.92;;;;;;;;;;4995477;28;20171;-74
2022/05/22 12:08:41;;;;;;;4.22;2.20;;;;;;;;;;4995440;28;20196;-74
2022/05/22 12:11:13;;;;;;;2.88;1.98;;;;;;;;;;4995507;28;20187;-74
2022/05/22 12:13:48;;;;;;;5.07;2.05;;;;;;;;;;4995185;28;20273;-74
2022/05/22 12:16:17;;;;;;;4.38;1.85;;;;;;;;;;4995297;28;20684;-74
2022/05/22 12:18:50;;;;;;;3.78;2.25;;;;;;;;;;4995191;28;20290;-74
2022/05/22 12:21:33;;;;;;;3.40;2.10;;;;;;;;;;4995084;28;20168;-74
2022/05/22 12:24:05;;;;;;;5.10;2.22;;;;;;;;;;4995090;28;20203;-74
2022/05/22 12:26:31;;;;;;;6.35;2.35;;;;;;;;;;4996252;28;20642;-74
2022/05/22 12:29:01;;;;;;;4.25;2.03;;;;;;;;;;4979101;28;20414;-74
2022/05/22 12:31:43;;;;;;;3.22;2.30;;;;;;;;;;4995142;28;20234;-74
2022/05/22 12:34:13;;;;;;;4.97;2.17;;;;;;;;;;4994828;28;20172;-74
2022/05/22 12:36:42;;;;;;;5.75;2.53;;;;;;;;;;4994958;28;20171;-74
2022/05/22 12:39:11;;;;;;;4.10;2.20;;;;;;;;;;4994720;28;20662;-74
2022/05/22 12:41:46;;;;;;;3.40;2.10;;;;;;;;;;4994925;28;20179;-74
2022/05/22 12:44:13;;;;;;;5.18;2.25;;;;;;;;;;4996040;28;20257;-74
2022/05/22 12:46:39;;;;;;;4.82;2.05;;;;;;;;;;4995164;28;20582;-74
2022/05/22 12:49:19;;;;;;;4.15;1.90;;;;;;;;;;4978798;28;20215;-74
2022/05/22 12:51:56;;;;;;;3.97;2.15;;;;;;;;;;4994747;28;20661;-74
2022/05/22 12:54:23;;;;;;;3.65;2.08;;;;;;;;;;4994776;28;20274;-74
2022/05/22 12:56:50;;;;;;;4.63;2.10;;;;;;;;;;4994661;28;20259;-74
2022/05/22 12:59:27;;;;;;;5.05;2.30;;;;;;;;;;4994487;28;20195;-74
2022/05/22 13:01:55;;;;;;;4.03;2.10;;;;;;;;;;4978301;28;20184;-74
2022/05/22 13:04:24;;;;;;;4.65;2.33;;;;;;;;;;4978513;28;20266;-74
2022/05/22 13:07:02;;;;;;;3.67;2.03;;;;;;;;;;4995623;28;20231;-74
2022/05/22 13:09:35;;;;;;;3.13;1.90;;;;;;;;;;4994305;28;20261;-74
2022/05/22 13:12:04;;;;;;;4.95;2.10;;;;;;;;;;4978021;28;20674;-74
2022/05/22 13:14:40;;;;;;;4.05;2.28;;;;;;;;;;4993211;28;20224;-73
2022/05/22 13:17:07;;;;;;;3.97;2.08;;;;;;;;;;4994602;28;20249;-74
2022/05/22 13:19:33;;;;;;;2.58;1.98;;;;;;;;;;4994148;28;20199;-74
2022/05/22 13:22:09;;;;;;;3.90;2.20;;;;;;;;;;4977823;28;20184;-74
2022/05/22 13:24:38;;;;;;;4.13;1.83;;;;;;;;;;4995361;28;20199;-74
2022/05/22 13:27:06;;;;;;;5.55;2.58;;;;;;;;;;4978199;28;20657;-74
2022/05/22 13:29:38;;;;;;;4.10;2.08;;;;;;;;;;4993846;28;20191;-74
2022/05/22 13:32:04;;;;;;;3.38;2.10;;;;;;;;;;4994015;28;20175;-74
2022/05/22 13:34:36;;;;;;;3.85;2.20;;;;;;;;;;4977891;28;20176;-74
2022/05/22 13:37:06;;;;;;;2.53;2.15;;;;;;;;;;4977841;28;20270;-74
2022/05/22 13:39:42;;;;;;;5.70;2.28;;;;;;;;;;4993593;28;20195;-74
2022/05/22 13:42:09;;;;;;;4.53;2.10;;;;;;;;;;4994868;28;20319;-74
2022/05/22 13:44:46;;;;;;;3.40;2.08;;;;;;;;;;4994923;28;20203;-74
2022/05/22 13:47:18;;;;;;;3.72;2.40;;;;;;;;;;4993904;28;20618;-74
2022/05/22 13:49:47;;;;;;;2.92;2.20;;;;;;;;;;5035049;22;20230;-75
2022/05/22 13:52:34;;;;;;;4.60;2.20;;;;;;;;;;5033947;28;20170;-75
2022/05/22 13:55:21;;;;;;;4.43;1.90;;;;;;;;;;5033015;28;20174;-75
2022/05/22 13:57:52;;;;;;;3.25;2.20;;;;;;;;;;5032068;28;20228;-75
2022/05/22 14:00:21;;;;;;;3.50;2.35;;;;;;;;;;5012845;28;20179;-75
2022/05/22 14:02:49;;;;;;;4.53;1.90;;;;;;;;;;5012632;28;20175;-75
2022/05/22 14:05:16;;;;;;;4.38;2.33;;;;;;;;;;4996570;28;20744;-75
2022/05/22 14:07:43;;;;;;;4.20;2.28;;;;;;;;;;4996599;28;20207;-75
2022/05/22 14:10:10;;;;;;;3.38;2.20;;;;;;;;;;5013975;28;20171;-75
2022/05/22 14:12:44;;;;;;;5.53;2.10;;;;;;;;;;5013793;28;20171;-75
2022/05/22 14:15:15;;;;;;;3.35;2.05;;;;;;;;;;5012862;28;20245;-75
2022/05/22 14:17:41;;;;;;;4.22;1.75;;;;;;;;;;5012398;28;20190;-75
2022/05/22 14:20:28;;;;;;;4.40;2.10;;;;;;;;;;4996503;28;20187;-75
2022/05/22 14:23:27;;;;;;;4.47;2.15;;;;;;;;;;5012446;28;20700;-75
2022/05/22 14:25:59;;;;;;;3.22;1.83;;;;;;;;;;4991285;28;20213;-75
2022/05/22 14:28:38;;;;;;;4.22;1.98;;;;;;;;;;5012433;28;20195;-75
2022/05/22 14:31:12;;;;;;;4.43;2.00;;;;;;;;;;5012590;28;20217;-75
2022/05/22 14:33:38;;;;;;;2.30;1.90;;;;;;;;;;5013245;28;20641;-75
2022/05/22 14:36:05;;;;;;;3.15;2.10;;;;;;;;;;4996057;28;20194;-75
2022/05/22 14:38:34;;;;;;;3.90;2.00;;;;;;;;;;5012125;28;20198;-75
2022/05/22 14:41:01;;;;;;;3.00;1.98;;;;;;;;;;5012448;28;20175;-75
2022/05/22 14:43:48;;;;;;;5.70;2.10;;;;;;;;;;5012007;28;20203;-75
2022/05/22 14:46:24;;;;;;;4.32;2.22;;;;;;;;;;5011938;28;20313;-75
2022/05/22 14:48:52;;;;;;;3.72;2.28;;;;;;;;;;5011818;28;20565;-75
2022/05/22 14:51:26;;;;;;;2.95;2.20;;;;;;;;;;5012238;28;20175;-75
2022/05/22 14:54:00;;;;;;;2.58;2.00;;;;;;;;;;5011869;28;20673;-75
2022/05/22 14:56:26;;;;;;;4.50;1.92;;;;;;;;;;5011944;28;20175;-75
2022/05/22 14:58:52;;;;;;;4.82;2.40;;;;;;;;;;5012074;28;20199;-75
2022/05/22 15:01:26;;;;;;;3.55;2.13;;;;;;;;;;5012076;28;20187;-75
2022/05/22 15:03:53;;;;;;;5.88;2.17;;;;;;;;;;5012953;28;20202;-75
2022/05/22 15:06:21;;;;;;;2.75;2.03;;;;;;;;;;5011922;28;20294;-75
2022/05/22 15:08:55;;;;;;;3.85;2.28;;;;;;;;;;5011597;28;20282;-75
2022/05/22 15:11:38;;;;;;;5.03;2.05;;;;;;;;;;5011651;28;20317;-75
2022/05/22 15:14:07;;;;;;;4.05;2.47;;;;;;;;;;4995372;28;20175;-75
2022/05/22 15:16:37;;;;;;;2.47;2.00;;;;;;;;;;5011606;28;20175;-75
2022/05/22 15:21:58;;;;;;;4.05;2.10;;;;;;;;;;5012802;28;20182;-75